sensor_id;sensor_type;location;lat;lon;timestamp;pressure;altitude;pressure_sealevel;temperature;humidity
19831;BME280;10076;52.008;4.708;2023-03-20T00:01:17;101996.53;;;10.40;100.00
19831;BME280;10076;52.008;4.708;2023-03-20T00:03:43;101983.63;;;10.68;100.00
19831;BME280;10076;52.008;4.708;2023-03-20T00:06:14;101971.84;;;10.41;100.00
19831;BME280;10076;52.008;4.708;2023-03-20T00:08:40;101971.84;;;10.41;100.00
19831;BME280;10076;52.008;4.708;2023-03-20T00:11:31;101961.75;;;10.32;100.00
19831;BME280;10076;52.008;4.708;2023-03-20T00:13:57;101954.31;;;10.07;100.00
19831;BME280;10076;52.008;4.708;2023-03-20T00:16:24;101965.56;;;10.10;100.00
19831;BME280;10076;52.008;4.708;2023-03-20T00:18:51;101969.59;;;10.17;100.00
19831;BME280;10076;52.008;4.708;2023-03-20T00:21:17;101978.84;;;10.09;100.00
19831;BME280;10076;52.008;4.708;2023-03-20T00:23:43;101985.44;;;10.00;100.00
19831;BME280;10076;52.008;4.708;2023-03-20T00:26:13;101993.88;;;10.07;100.00
19831;BME280;10076;52.008;4.708;2023-03-20T00:28:43;102003.59;;;10.06;100.00
19831;BME280;10076;52.008;4.708;2023-03-20T00:33:46;102009.84;;;9.87;100.00
19831;BME280;10076;52.008;4.708;2023-03-20T00:36:11;102018.88;;;9.81;100.00
19831;BME280;10076;52.008;4.708;2023-03-20T00:38:36;102013.41;;;9.86;100.00
19831;BME280;10076;52.008;4.708;2023-03-20T00:41:02;102007.81;;;9.92;100.00
19831;BME280;10076;52.008;4.708;2023-03-20T00:43:35;102001.13;;;9.85;100.00
19831;BME280;10076;52.008;4.708;2023-03-20T00:46:01;101991.13;;;9.91;100.00
19831;BME280;10076;52.008;4.708;2023-03-20T00:48:27;101988.16;;;9.99;100.00
19831;BME280;10076;52.008;4.708;2023-03-20T00:50:52;101993.19;;;10.03;100.00
19831;BME280;10076;52.008;4.708;2023-03-20T00:53:18;102006.69;;;9.97;100.00
19831;BME280;10076;52.008;4.708;2023-03-20T00:55:44;102004.22;;;9.76;100.00
19831;BME280;10076;52.008;4.708;2023-03-20T00:58:10;102002.03;;;9.67;100.00
19831;BME280;10076;52.008;4.708;2023-03-20T01:00:41;101995.06;;;9.48;100.00
19831;BME280;10076;52.008;4.708;2023-03-20T01:03:16;101980.97;;;9.49;100.00
19831;BME280;10076;52.008;4.708;2023-03-20T01:05:42;101985.50;;;9.63;100.00
19831;BME280;10076;52.008;4.708;2023-03-20T01:08:11;101974.44;;;9.91;100.00
19831;BME280;10076;52.008;4.708;2023-03-20T01:10:37;101974.75;;;9.85;100.00
19831;BME280;10076;52.008;4.708;2023-03-20T01:13:03;101975.34;;;9.73;100.00
19831;BME280;10076;52.008;4.708;2023-03-20T01:15:31;101987.41;;;9.78;100.00
19831;BME280;10076;52.008;4.708;2023-03-20T01:17:57;101977.19;;;9.71;100.00
19831;BME280;10076;52.008;4.708;2023-03-20T01:20:25;101975.75;;;9.65;100.00
19831;BME280;10076;52.008;4.708;2023-03-20T01:22:51;101979.50;;;9.60;100.00
19831;BME280;10076;52.008;4.708;2023-03-20T01:25:17;101972.59;;;9.58;100.00
19831;BME280;10076;52.008;4.708;2023-03-20T01:27:44;101989.75;;;9.66;100.00
19831;BME280;10076;52.008;4.708;2023-03-20T01:30:18;102001.31;;;9.82;100.00
19831;BME280;10076;52.008;4.708;2023-03-20T01:32:44;102014.00;;;9.74;100.00
19831;BME280;10076;52.008;4.708;2023-03-20T01:35:15;102004.44;;;9.71;100.00
19831;BME280;10076;52.008;4.708;2023-03-20T01:37:42;102015.28;;;9.65;100.00
19831;BME280;10076;52.008;4.708;2023-03-20T01:42:39;102032.69;;;9.51;100.00
19831;BME280;10076;52.008;4.708;2023-03-20T01:45:15;102033.03;;;9.25;100.00
19831;BME280;10076;52.008;4.708;2023-03-20T01:47:42;102029.72;;;9.40;100.00
19831;BME280;10076;52.008;4.708;2023-03-20T01:50:28;102024.00;;;9.49;100.00
19831;BME280;10076;52.008;4.708;2023-03-20T01:53:17;102027.13;;;9.39;100.00
19831;BME280;10076;52.008;4.708;2023-03-20T01:55:45;102019.59;;;9.31;100.00
19831;BME280;10076;52.008;4.708;2023-03-20T01:58:15;102010.81;;;9.49;100.00
19831;BME280;10076;52.008;4.708;2023-03-20T02:00:44;102010.72;;;9.51;100.00
19831;BME280;10076;52.008;4.708;2023-03-20T02:03:10;102005.59;;;9.66;100.00
19831;BME280;10076;52.008;4.708;2023-03-20T02:05:36;102006.13;;;9.56;100.00
19831;BME280;10076;52.008;4.708;2023-03-20T02:08:16;102008.19;;;9.67;100.00
19831;BME280;10076;52.008;4.708;2023-03-20T02:10:44;102004.31;;;9.56;100.00
19831;BME280;10076;52.008;4.708;2023-03-20T02:13:10;101998.59;;;9.65;100.00
19831;BME280;10076;52.008;4.708;2023-03-20T02:15:56;102002.06;;;9.49;100.00
19831;BME280;10076;52.008;4.708;2023-03-20T02:18:22;101999.34;;;9.50;100.00
19831;BME280;10076;52.008;4.708;2023-03-20T02:41:04;101938.56;;;9.53;100.00
19831;BME280;10076;52.008;4.708;2023-03-20T02:43:47;101934.53;;;9.28;100.00
19831;BME280;10076;52.008;4.708;2023-03-20T02:48:51;101950.78;;;9.37;100.00
19831;BME280;10076;52.008;4.708;2023-03-20T03:01:42;101941.88;;;9.21;100.00
19831;BME280;10076;52.008;4.708;2023-03-20T03:04:25;101939.47;;;9.17;100.00
19831;BME280;10076;52.008;4.708;2023-03-20T03:06:53;101928.16;;;9.15;100.00
19831;BME280;10076;52.008;4.708;2023-03-20T03:09:42;101932.19;;;9.22;100.00
19831;BME280;10076;52.008;4.708;2023-03-20T03:12:22;101932.47;;;9.16;100.00
19831;BME280;10076;52.008;4.708;2023-03-20T03:14:53;101939.09;;;9.24;100.00
19831;BME280;10076;52.008;4.708;2023-03-20T03:17:22;101940.47;;;9.14;100.00
19831;BME280;10076;52.008;4.708;2023-03-20T03:19:52;101932.84;;;9.08;100.00
19831;BME280;10076;52.008;4.708;2023-03-20T03:22:19;101935.13;;;9.16;100.00
19831;BME280;10076;52.008;4.708;2023-03-20T03:24:50;101927.88;;;9.21;100.00
19831;BME280;10076;52.008;4.708;2023-03-20T03:27:22;101928.56;;;9.24;100.00
19831;BME280;10076;52.008;4.708;2023-03-20T03:29:55;101917.59;;;9.33;100.00
19831;BME280;10076;52.008;4.708;2023-03-20T03:32:27;101916.91;;;9.11;100.00
19831;BME280;10076;52.008;4.708;2023-03-20T03:34:54;101915.88;;;9.32;100.00
19831;BME280;10076;52.008;4.708;2023-03-20T03:40:16;101912.81;;;9.23;100.00
19831;BME280;10076;52.008;4.708;2023-03-20T03:42:52;101913.41;;;9.29;100.00
19831;BME280;10076;52.008;4.708;2023-03-20T03:45:31;101906.25;;;9.31;100.00
19831;BME280;10076;52.008;4.708;2023-03-20T03:48:17;101904.53;;;9.30;100.00
19831;BME280;10076;52.008;4.708;2023-03-20T03:50:49;101903.50;;;9.34;100.00
19831;BME280;10076;52.008;4.708;2023-03-20T03:53:23;101906.09;;;9.17;100.00
19831;BME280;10076;52.008;4.708;2023-03-20T03:55:53;101897.19;;;9.20;100.00
19831;BME280;10076;52.008;4.708;2023-03-20T03:58:30;101902.38;;;8.85;100.00
19831;BME280;10076;52.008;4.708;2023-03-20T04:00:58;101890.94;;;9.04;100.00
19831;BME280;10076;52.008;4.708;2023-03-20T04:03:32;101883.41;;;9.13;100.00
19831;BME280;10076;52.008;4.708;2023-03-20T04:06:00;101890.69;;;9.08;100.00
19831;BME280;10076;52.008;4.708;2023-03-20T04:08:27;101893.91;;;9.15;100.00
19831;BME280;10076;52.008;4.708;2023-03-20T04:10:52;101886.59;;;9.03;100.00
19831;BME280;10076;52.008;4.708;2023-03-20T04:13:17;101893.47;;;8.87;100.00
19831;BME280;10076;52.008;4.708;2023-03-20T04:15:42;101878.44;;;9.07;100.00
19831;BME280;10076;52.008;4.708;2023-03-20T04:18:14;101882.16;;;9.03;100.00
19831;BME280;10076;52.008;4.708;2023-03-20T04:20:41;101890.28;;;8.99;100.00
19831;BME280;10076;52.008;4.708;2023-03-20T04:23:06;101897.69;;;9.09;100.00
19831;BME280;10076;52.008;4.708;2023-03-20T04:25:32;101895.84;;;9.11;100.00
19831;BME280;10076;52.008;4.708;2023-03-20T04:27:57;101899.88;;;9.00;100.00
19831;BME280;10076;52.008;4.708;2023-03-20T04:30:22;101904.38;;;9.16;100.00
19831;BME280;10076;52.008;4.708;2023-03-20T04:32:47;101902.16;;;9.07;100.00
19831;BME280;10076;52.008;4.708;2023-03-20T04:35:13;101894.41;;;9.04;100.00
19831;BME280;10076;52.008;4.708;2023-03-20T04:37:38;101892.97;;;8.97;100.00
19831;BME280;10076;52.008;4.708;2023-03-20T04:40:04;101888.31;;;9.04;100.00
19831;BME280;10076;52.008;4.708;2023-03-20T04:42:29;101886.94;;;8.95;100.00
19831;BME280;10076;52.008;4.708;2023-03-20T04:44:55;101880.16;;;9.08;100.00
19831;BME280;10076;52.008;4.708;2023-03-20T04:47:20;101880.03;;;9.11;100.00
19831;BME280;10076;52.008;4.708;2023-03-20T04:49:45;101873.75;;;8.95;100.00
19831;BME280;10076;52.008;4.708;2023-03-20T04:52:10;101877.19;;;8.97;100.00
19831;BME280;10076;52.008;4.708;2023-03-20T04:54:36;101874.19;;;9.05;100.00
19831;BME280;10076;52.008;4.708;2023-03-20T04:57:01;101868.41;;;9.15;100.00
19831;BME280;10076;52.008;4.708;2023-03-20T04:59:26;101859.25;;;9.05;100.00
19831;BME280;10076;52.008;4.708;2023-03-20T05:01:52;101856.09;;;8.97;100.00
19831;BME280;10076;52.008;4.708;2023-03-20T05:04:17;101854.19;;;9.01;100.00
19831;BME280;10076;52.008;4.708;2023-03-20T05:06:42;101859.00;;;9.10;100.00
19831;BME280;10076;52.008;4.708;2023-03-20T05:09:09;101854.72;;;9.07;100.00
19831;BME280;10076;52.008;4.708;2023-03-20T05:11:34;101854.72;;;9.07;100.00
19831;BME280;10076;52.008;4.708;2023-03-20T05:13:59;101853.47;;;8.97;100.00
19831;BME280;10076;52.008;4.708;2023-03-20T05:16:25;101851.25;;;9.07;100.00
19831;BME280;10076;52.008;4.708;2023-03-20T05:18:50;101860.97;;;9.06;100.00
19831;BME280;10076;52.008;4.708;2023-03-20T05:21:15;101870.75;;;9.21;100.00
19831;BME280;10076;52.008;4.708;2023-03-20T05:23:41;101859.38;;;9.02;100.00
19831;BME280;10076;52.008;4.708;2023-03-20T05:26:06;101862.72;;;9.06;100.00
19831;BME280;10076;52.008;4.708;2023-03-20T05:28:31;101873.84;;;9.12;100.00
19831;BME280;10076;52.008;4.708;2023-03-20T05:30:57;101869.88;;;9.04;100.00
19831;BME280;10076;52.008;4.708;2023-03-20T05:33:22;101867.16;;;9.05;100.00
19831;BME280;10076;52.008;4.708;2023-03-20T05:35:47;101871.63;;;9.03;100.00
19831;BME280;10076;52.008;4.708;2023-03-20T05:38:13;101877.06;;;9.00;100.00
19831;BME280;10076;52.008;4.708;2023-03-20T05:40:38;101882.28;;;9.19;100.00
19831;BME280;10076;52.008;4.708;2023-03-20T05:43:06;101877.84;;;9.19;100.00
19831;BME280;10076;52.008;4.708;2023-03-20T05:45:31;101877.72;;;9.22;100.00
19831;BME280;10076;52.008;4.708;2023-03-20T05:47:56;101877.72;;;9.22;100.00
19831;BME280;10076;52.008;4.708;2023-03-20T05:50:21;101881.56;;;9.15;100.00
19831;BME280;10076;52.008;4.708;2023-03-20T05:52:47;101884.91;;;9.19;100.00
19831;BME280;10076;52.008;4.708;2023-03-20T05:55:13;101881.91;;;9.26;100.00
19831;BME280;10076;52.008;4.708;2023-03-20T05:57:39;101880.97;;;9.27;100.00
19831;BME280;10076;52.008;4.708;2023-03-20T06:00:06;101881.78;;;9.29;100.00
19831;BME280;10076;52.008;4.708;2023-03-20T06:02:32;101878.56;;;9.23;100.00
19831;BME280;10076;52.008;4.708;2023-03-20T06:04:58;101884.41;;;9.29;100.00
19831;BME280;10076;52.008;4.708;2023-03-20T06:07:23;101891.06;;;9.36;100.00
19831;BME280;10076;52.008;4.708;2023-03-20T06:09:48;101879.84;;;9.33;100.00
19831;BME280;10076;52.008;4.708;2023-03-20T06:12:14;101885.91;;;9.52;100.00
19831;BME280;10076;52.008;4.708;2023-03-20T06:14:40;101890.75;;;9.42;100.00
19831;BME280;10076;52.008;4.708;2023-03-20T06:17:05;101899.94;;;9.35;100.00
19831;BME280;10076;52.008;4.708;2023-03-20T06:19:30;101897.66;;;9.45;100.00
19831;BME280;10076;52.008;4.708;2023-03-20T06:21:56;101906.03;;;9.36;100.00
19831;BME280;10076;52.008;4.708;2023-03-20T06:24:21;101904.66;;;9.10;100.00
19831;BME280;10076;52.008;4.708;2023-03-20T06:26:46;101916.97;;;9.28;100.00
19831;BME280;10076;52.008;4.708;2023-03-20T06:29:12;101912.72;;;9.43;100.00
19831;BME280;10076;52.008;4.708;2023-03-20T06:31:37;101910.69;;;9.31;100.00
19831;BME280;10076;52.008;4.708;2023-03-20T06:34:02;101911.00;;;9.42;100.00
19831;BME280;10076;52.008;4.708;2023-03-20T06:36:28;101915.53;;;9.57;100.00
19831;BME280;10076;52.008;4.708;2023-03-20T06:38:55;101917.13;;;9.42;100.00
19831;BME280;10076;52.008;4.708;2023-03-20T06:41:21;101913.47;;;9.63;100.00
19831;BME280;10076;52.008;4.708;2023-03-20T06:43:46;101915.47;;;9.58;100.00
19831;BME280;10076;52.008;4.708;2023-03-20T06:46:12;101908.25;;;9.62;100.00
19831;BME280;10076;52.008;4.708;2023-03-20T06:48:37;101915.31;;;9.61;100.00
19831;BME280;10076;52.008;4.708;2023-03-20T06:51:03;101924.47;;;9.71;100.00
19831;BME280;10076;52.008;4.708;2023-03-20T06:53:28;101917.47;;;9.53;100.00
19831;BME280;10076;52.008;4.708;2023-03-20T06:55:53;101920.13;;;9.35;100.00
19831;BME280;10076;52.008;4.708;2023-03-20T06:58:19;101921.47;;;9.43;100.00
19831;BME280;10076;52.008;4.708;2023-03-20T07:00:45;101921.38;;;9.45;100.00
19831;BME280;10076;52.008;4.708;2023-03-20T07:03:10;101930.00;;;9.48;100.00
19831;BME280;10076;52.008;4.708;2023-03-20T07:05:37;101925.22;;;9.56;100.00
19831;BME280;10076;52.008;4.708;2023-03-20T07:08:03;101924.44;;;9.54;100.00
19831;BME280;10076;52.008;4.708;2023-03-20T07:10:29;101926.03;;;9.58;100.00
19831;BME280;10076;52.008;4.708;2023-03-20T07:12:54;101929.16;;;9.48;100.00
19831;BME280;10076;52.008;4.708;2023-03-20T07:15:19;101927.66;;;9.61;100.00
19831;BME280;10076;52.008;4.708;2023-03-20T07:17:45;101922.81;;;9.52;100.00
19831;BME280;10076;52.008;4.708;2023-03-20T07:20:11;101927.03;;;9.72;100.00
19831;BME280;10076;52.008;4.708;2023-03-20T07:22:38;101922.16;;;9.82;100.00
19831;BME280;10076;52.008;4.708;2023-03-20T07:25:04;101920.91;;;9.89;100.00
19831;BME280;10076;52.008;4.708;2023-03-20T07:27:30;101925.66;;;9.82;100.00
19831;BME280;10076;52.008;4.708;2023-03-20T07:29:55;101919.19;;;9.71;100.00
19831;BME280;10076;52.008;4.708;2023-03-20T07:32:21;101920.75;;;9.92;100.00
19831;BME280;10076;52.008;4.708;2023-03-20T07:34:46;101927.28;;;9.85;100.00
19831;BME280;10076;52.008;4.708;2023-03-20T07:37:12;101928.66;;;9.75;100.00
19831;BME280;10076;52.008;4.708;2023-03-20T07:39:37;101923.94;;;9.81;100.00
19831;BME280;10076;52.008;4.708;2023-03-20T07:42:03;101926.25;;;9.87;100.00
19831;BME280;10076;52.008;4.708;2023-03-20T07:44:28;101937.34;;;9.94;100.00
19831;BME280;10076;52.008;4.708;2023-03-20T07:46:54;101937.34;;;9.94;100.00
19831;BME280;10076;52.008;4.708;2023-03-20T07:49:19;101934.66;;;9.95;100.00
19831;BME280;10076;52.008;4.708;2023-03-20T07:51:46;101925.13;;;10.10;100.00
19831;BME280;10076;52.008;4.708;2023-03-20T07:54:12;101931.56;;;10.04;100.00
19831;BME280;10076;52.008;4.708;2023-03-20T07:56:37;101938.97;;;9.98;100.00
19831;BME280;10076;52.008;4.708;2023-03-20T07:59:02;101934.91;;;10.08;100.00
19831;BME280;10076;52.008;4.708;2023-03-20T08:01:28;101940.28;;;9.88;100.00
19831;BME280;10076;52.008;4.708;2023-03-20T08:03:53;101940.53;;;9.83;100.00
19831;BME280;10076;52.008;4.708;2023-03-20T08:06:19;101946.66;;;9.84;100.00
19831;BME280;10076;52.008;4.708;2023-03-20T08:08:44;101941.25;;;9.70;100.00
19831;BME280;10076;52.008;4.708;2023-03-20T08:11:10;101948.38;;;9.85;100.00
19831;BME280;10076;52.008;4.708;2023-03-20T08:13:36;101947.13;;;9.75;100.00
19831;BME280;10076;52.008;4.708;2023-03-20T08:16:02;101944.00;;;9.67;100.00
19831;BME280;10076;52.008;4.708;2023-03-20T08:18:27;101947.69;;;9.46;100.00
19831;BME280;10076;52.008;4.708;2023-03-20T08:20:53;101945.13;;;9.45;100.00
19831;BME280;10076;52.008;4.708;2023-03-20T08:23:18;101943.84;;;9.53;100.00
19831;BME280;10076;52.008;4.708;2023-03-20T08:25:48;101948.84;;;9.41;100.00
19831;BME280;10076;52.008;4.708;2023-03-20T08:28:13;101944.66;;;9.37;100.00
19831;BME280;10076;52.008;4.708;2023-03-20T08:30:39;101943.19;;;9.48;100.00
19831;BME280;10076;52.008;4.708;2023-03-20T08:33:04;101943.88;;;9.70;100.00
19831;BME280;10076;52.008;4.708;2023-03-20T08:35:30;101946.31;;;9.56;100.00
19831;BME280;10076;52.008;4.708;2023-03-20T08:37:55;101950.06;;;9.69;100.00
19831;BME280;10076;52.008;4.708;2023-03-20T08:40:21;101953.75;;;9.65;100.00
19831;BME280;10076;52.008;4.708;2023-03-20T08:42:46;101948.91;;;9.74;100.00
19831;BME280;10076;52.008;4.708;2023-03-20T08:45:11;101952.94;;;9.81;100.00
19831;BME280;10076;52.008;4.708;2023-03-20T08:47:37;101945.41;;;9.74;100.00
19831;BME280;10076;52.008;4.708;2023-03-20T08:50:03;101945.34;;;9.75;100.00
19831;BME280;10076;52.008;4.708;2023-03-20T08:52:29;101947.88;;;9.77;100.00
19831;BME280;10076;52.008;4.708;2023-03-20T08:54:54;101950.16;;;9.67;100.00
19831;BME280;10076;52.008;4.708;2023-03-20T08:57:20;101950.81;;;9.71;100.00
19831;BME280;10076;52.008;4.708;2023-03-20T08:59:45;101941.47;;;9.65;100.00
19831;BME280;10076;52.008;4.708;2023-03-20T09:02:11;101944.19;;;9.81;100.00
19831;BME280;10076;52.008;4.708;2023-03-20T09:04:36;101942.69;;;10.11;100.00
19831;BME280;10076;52.008;4.708;2023-03-20T09:07:02;101939.38;;;10.23;100.00
19831;BME280;10076;52.008;4.708;2023-03-20T09:09:28;101931.94;;;10.31;100.00
19831;BME280;10076;52.008;4.708;2023-03-20T09:11:57;101938.59;;;10.37;100.00
19831;BME280;10076;52.008;4.708;2023-03-20T09:14:23;101936.50;;;10.27;100.00
19831;BME280;10076;52.008;4.708;2023-03-20T09:16:49;101939.72;;;10.33;100.00
19831;BME280;10076;52.008;4.708;2023-03-20T09:19:15;101935.91;;;10.22;100.00
19831;BME280;10076;52.008;4.708;2023-03-20T09:21:41;101935.69;;;10.27;100.00
19831;BME280;10076;52.008;4.708;2023-03-20T09:24:06;101937.81;;;10.35;100.00
19831;BME280;10076;52.008;4.708;2023-03-20T09:26:32;101938.06;;;10.48;100.00
19831;BME280;10076;52.008;4.708;2023-03-20T09:28:57;101944.97;;;10.66;100.00
19831;BME280;10076;52.008;4.708;2023-03-20T09:31:22;101940.66;;;10.65;100.00
19831;BME280;10076;52.008;4.708;2023-03-20T09:33:48;101936.38;;;10.62;100.00
19831;BME280;10076;52.008;4.708;2023-03-20T09:36:13;101939.19;;;10.59;100.00
19831;BME280;10076;52.008;4.708;2023-03-20T09:38:40;101936.09;;;10.51;100.00
19831;BME280;10076;52.008;4.708;2023-03-20T09:41:14;101944.34;;;10.45;100.00
19831;BME280;10076;52.008;4.708;2023-03-20T09:51:37;101941.38;;;10.19;100.00
19831;BME280;10076;52.008;4.708;2023-03-20T09:54:20;101943.00;;;10.22;100.00
19831;BME280;10076;52.008;4.708;2023-03-20T09:56:49;101945.69;;;10.20;100.00
19831;BME280;10076;52.008;4.708;2023-03-20T09:59:16;101944.53;;;10.26;100.00
19831;BME280;10076;52.008;4.708;2023-03-20T10:01:56;101954.13;;;10.43;100.00
19831;BME280;10076;52.008;4.708;2023-03-20T10:04:25;101944.38;;;10.61;100.00
19831;BME280;10076;52.008;4.708;2023-03-20T10:06:53;101941.50;;;10.65;100.00
19831;BME280;10076;52.008;4.708;2023-03-20T10:09:27;101943.66;;;10.74;100.00
19831;BME280;10076;52.008;4.708;2023-03-20T10:20:35;101940.09;;;10.91;100.00
19831;BME280;10076;52.008;4.708;2023-03-20T10:23:15;101931.50;;;11.02;100.00
19831;BME280;10076;52.008;4.708;2023-03-20T10:25:49;101931.91;;;10.80;100.00
19831;BME280;10076;52.008;4.708;2023-03-20T10:28:20;101928.34;;;10.96;100.00
19831;BME280;10076;52.008;4.708;2023-03-20T10:31:05;101922.03;;;11.14;100.00
19831;BME280;10076;52.008;4.708;2023-03-20T10:39:11;101920.69;;;11.07;100.00
19831;BME280;10076;52.008;4.708;2023-03-20T10:41:46;101916.84;;;10.97;100.00
19831;BME280;10076;52.008;4.708;2023-03-20T10:44:23;101922.53;;;11.20;100.00
19831;BME280;10076;52.008;4.708;2023-03-20T10:46:52;101912.47;;;11.27;100.00
19831;BME280;10076;52.008;4.708;2023-03-20T10:49:33;101911.63;;;11.42;100.00
19831;BME280;10076;52.008;4.708;2023-03-20T10:52:03;101912.97;;;11.49;100.00
19831;BME280;10076;52.008;4.708;2023-03-20T10:54:39;101915.69;;;11.47;100.00
19831;BME280;10076;52.008;4.708;2023-03-20T10:57:13;101905.88;;;11.49;100.00
19831;BME280;10076;52.008;4.708;2023-03-20T10:59:47;101906.50;;;11.54;100.00
19831;BME280;10076;52.008;4.708;2023-03-20T11:02:15;101905.97;;;11.48;100.00
19831;BME280;10076;52.008;4.708;2023-03-20T11:04:40;101895.09;;;11.23;100.00
19831;BME280;10076;52.008;4.708;2023-03-20T11:09:40;101896.94;;;11.21;100.00
19831;BME280;10076;52.008;4.708;2023-03-20T11:12:16;101891.16;;;11.30;100.00
19831;BME280;10076;52.008;4.708;2023-03-20T11:14:43;101889.09;;;11.35;100.00
19831;BME280;10076;52.008;4.708;2023-03-20T11:17:10;101880.81;;;11.41;100.00
19831;BME280;10076;52.008;4.708;2023-03-20T11:19:38;101880.38;;;11.33;100.00
19831;BME280;10076;52.008;4.708;2023-03-20T11:22:30;101882.78;;;11.22;100.00
19831;BME280;10076;52.008;4.708;2023-03-20T11:24:57;101881.88;;;11.07;100.00
19831;BME280;10076;52.008;4.708;2023-03-20T11:27:29;101896.88;;;11.07;100.00
19831;BME280;10076;52.008;4.708;2023-03-20T11:29:55;101888.19;;;11.05;100.00
19831;BME280;10076;52.008;4.708;2023-03-20T11:32:31;101888.63;;;11.13;100.00
19831;BME280;10076;52.008;4.708;2023-03-20T11:37:47;101873.00;;;11.24;100.00
19831;BME280;10076;52.008;4.708;2023-03-20T11:40:23;101873.44;;;11.16;100.00
19831;BME280;10076;52.008;4.708;2023-03-20T11:45:24;101872.06;;;11.25;100.00
19831;BME280;10076;52.008;4.708;2023-03-20T11:47:52;101883.38;;;11.27;100.00
19831;BME280;10076;52.008;4.708;2023-03-20T11:50:35;101868.44;;;11.41;100.00
19831;BME280;10076;52.008;4.708;2023-03-20T11:53:16;101875.09;;;11.33;100.00
19831;BME280;10076;52.008;4.708;2023-03-20T11:55:56;101869.13;;;11.45;100.00
19831;BME280;10076;52.008;4.708;2023-03-20T11:58:22;101871.63;;;11.32;100.00
19831;BME280;10076;52.008;4.708;2023-03-20T12:00:50;101870.13;;;11.13;100.00
19831;BME280;10076;52.008;4.708;2023-03-20T12:03:50;101870.13;;;10.98;100.00
19831;BME280;10076;52.008;4.708;2023-03-20T12:06:23;101883.13;;;11.00;100.00
19831;BME280;10076;52.008;4.708;2023-03-20T12:08:53;101880.69;;;10.82;100.00
19831;BME280;10076;52.008;4.708;2023-03-20T12:11:30;101876.00;;;11.02;100.00
19831;BME280;10076;52.008;4.708;2023-03-20T12:14:01;101878.13;;;10.96;100.00
19831;BME280;10076;52.008;4.708;2023-03-20T12:16:31;101866.63;;;10.97;100.00
19831;BME280;10076;52.008;4.708;2023-03-20T12:19:00;101880.84;;;10.79;100.00
19831;BME280;10076;52.008;4.708;2023-03-20T12:24:29;101881.88;;;10.77;100.00
19831;BME280;10076;52.008;4.708;2023-03-20T12:29:46;101876.56;;;10.92;100.00
19831;BME280;10076;52.008;4.708;2023-03-20T12:34:53;101874.97;;;10.90;100.00
19831;BME280;10076;52.008;4.708;2023-03-20T12:37:21;101871.56;;;11.03;100.00
19831;BME280;10076;52.008;4.708;2023-03-20T12:39:53;101865.56;;;11.15;100.00
19831;BME280;10076;52.008;4.708;2023-03-20T12:45:14;101863.56;;;11.04;100.00
19831;BME280;10076;52.008;4.708;2023-03-20T12:48:08;101867.63;;;11.10;100.00
19831;BME280;10076;52.008;4.708;2023-03-20T12:50:44;101861.84;;;11.19;100.00
19831;BME280;10076;52.008;4.708;2023-03-20T12:56:24;101856.06;;;10.97;100.00
19831;BME280;10076;52.008;4.708;2023-03-20T13:07:01;101850.44;;;10.72;100.00
19831;BME280;10076;52.008;4.708;2023-03-20T13:09:51;101845.97;;;10.73;100.00
19831;BME280;10076;52.008;4.708;2023-03-20T13:21:23;101838.84;;;10.75;100.00
19831;BME280;10076;52.008;4.708;2023-03-20T13:27:10;101835.94;;;10.79;100.00
19831;BME280;10076;52.008;4.708;2023-03-20T13:30:00;101837.91;;;10.76;100.00
19831;BME280;10076;52.008;4.708;2023-03-20T13:35:08;101830.31;;;10.70;100.00
19831;BME280;10076;52.008;4.708;2023-03-20T13:37:40;101827.81;;;10.67;100.00
19831;BME280;10076;52.008;4.708;2023-03-20T13:40:27;101829.09;;;10.75;100.00
19831;BME280;10076;52.008;4.708;2023-03-20T13:42:59;101829.44;;;10.85;100.00
19831;BME280;10076;52.008;4.708;2023-03-20T13:45:41;101828.84;;;10.95;100.00
19831;BME280;10076;52.008;4.708;2023-03-20T13:51:02;101828.63;;;10.84;100.00
19831;BME280;10076;52.008;4.708;2023-03-20T14:05:24;101823.91;;;10.89;100.00
19831;BME280;10076;52.008;4.708;2023-03-20T14:07:55;101820.75;;;10.98;100.00
19831;BME280;10076;52.008;4.708;2023-03-20T14:15:18;101816.69;;;10.93;100.00
19831;BME280;10076;52.008;4.708;2023-03-20T14:17:46;101825.97;;;10.84;100.00
19831;BME280;10076;52.008;4.708;2023-03-20T14:20:27;101827.69;;;10.85;100.00
19831;BME280;10076;52.008;4.708;2023-03-20T14:22:55;101822.72;;;10.95;100.00
19831;BME280;10076;52.008;4.708;2023-03-20T14:25:22;101820.25;;;10.92;100.00
19831;BME280;10076;52.008;4.708;2023-03-20T14:28:08;101817.16;;;10.99;100.00
19831;BME280;10076;52.008;4.708;2023-03-20T14:30:48;101822.06;;;10.91;100.00
19831;BME280;10076;52.008;4.708;2023-03-20T14:35:45;101811.63;;;10.88;100.00
19831;BME280;10076;52.008;4.708;2023-03-20T14:38:26;101806.44;;;10.87;100.00
19831;BME280;10076;52.008;4.708;2023-03-20T14:41:04;101814.63;;;10.82;100.00
19831;BME280;10076;52.008;4.708;2023-03-20T14:51:59;101808.75;;;10.77;100.00
19831;BME280;10076;52.008;4.708;2023-03-20T14:54:33;101806.00;;;10.79;100.00
19831;BME280;10076;52.008;4.708;2023-03-20T14:57:15;101805.66;;;10.85;100.00
19831;BME280;10076;52.008;4.708;2023-03-20T14:59:41;101806.94;;;10.93;100.00
19831;BME280;10076;52.008;4.708;2023-03-20T15:02:26;101808.50;;;10.97;100.00
19831;BME280;10076;52.008;4.708;2023-03-20T15:04:52;101807.97;;;10.91;100.00
19831;BME280;10076;52.008;4.708;2023-03-20T15:07:29;101800.22;;;10.72;100.00
19831;BME280;10076;52.008;4.708;2023-03-20T15:09:57;101811.25;;;10.80;100.00
19831;BME280;10076;52.008;4.708;2023-03-20T15:12:26;101801.50;;;10.81;100.00
19831;BME280;10076;52.008;4.708;2023-03-20T15:14:58;101800.03;;;10.91;100.00